createdAt,value
2023-01-29T00:00:22.277Z,10.56
2023-01-29T00:02:49.093Z,10.56
2023-01-29T00:05:27.461Z,10.52
2023-01-29T00:07:55.476Z,10.46
2023-01-29T00:10:22.109Z,10.45
2023-01-29T00:12:48.795Z,10.41
2023-01-29T00:15:15.548Z,10.44
2023-01-29T00:17:42.191Z,10.44
2023-01-29T00:20:09.254Z,10.39
2023-01-29T00:22:36.892Z,10.35
2023-01-29T00:25:03.703Z,10.30
2023-01-29T00:27:30.309Z,10.27
2023-01-29T00:30:19.581Z,10.24
2023-01-29T00:32:46.845Z,10.24
2023-01-29T00:35:13.561Z,10.23
2023-01-29T00:37:40.296Z,10.21
2023-01-29T00:40:07.667Z,10.23
2023-01-29T00:42:53.063Z,10.28
2023-01-29T00:45:19.743Z,10.27
2023-01-29T00:47:46.389Z,10.29
2023-01-29T00:50:13.095Z,10.32
2023-01-29T00:52:41.378Z,10.31
2023-01-29T00:55:08.370Z,10.33
2023-01-29T00:57:35.409Z,10.33
2023-01-29T01:00:02.581Z,10.35
2023-01-29T01:02:48.057Z,10.38
2023-01-29T01:05:18.422Z,10.39
2023-01-29T01:07:48.538Z,10.39
2023-01-29T01:10:22.390Z,10.40
2023-01-29T01:12:56.205Z,10.39
2023-01-29T01:15:23.470Z,10.36
2023-01-29T01:17:54.205Z,10.34
2023-01-29T01:20:20.784Z,10.32
2023-01-29T01:22:47.459Z,10.33
2023-01-29T01:25:14.080Z,10.32
2023-01-29T01:27:41.555Z,10.29
2023-01-29T01:30:09.618Z,10.29
2023-01-29T01:32:36.315Z,10.26
2023-01-29T01:35:02.965Z,10.17
2023-01-29T01:37:29.645Z,10.13
2023-01-29T01:39:58.735Z,10.08
2023-01-29T01:42:30.354Z,10.05
2023-01-29T01:45:05.637Z,10.02
2023-01-29T01:47:40.198Z,10.01
2023-01-29T01:50:08.523Z,10.02
2023-01-29T01:52:35.811Z,9.98
2023-01-29T01:55:02.489Z,10.00
2023-01-29T01:57:29.162Z,9.98
2023-01-29T01:59:58.029Z,9.94
2023-01-29T02:02:43.454Z,9.90
2023-01-29T02:05:28.676Z,9.88
2023-01-29T02:08:14.094Z,9.82
2023-01-29T02:10:44.823Z,9.82
2023-01-29T02:13:11.395Z,9.77
2023-01-29T02:15:42.122Z,9.71
2023-01-29T02:18:09.307Z,9.70
2023-01-29T02:20:36.052Z,9.67
2023-01-29T02:23:14.746Z,9.71
2023-01-29T02:25:59.663Z,9.71
2023-01-29T02:28:33.494Z,9.70
2023-01-29T02:31:03.258Z,9.72
2023-01-29T02:33:29.832Z,9.67
2023-01-29T02:36:04.173Z,9.68
2023-01-29T02:38:30.827Z,9.71
2023-01-29T02:41:26.743Z,9.72
2023-01-29T02:43:56.037Z,9.62
2023-01-29T02:46:28.848Z,9.61
2023-01-29T02:49:07.632Z,9.64
2023-01-29T02:51:39.075Z,9.61
2023-01-29T02:54:13.831Z,9.61
2023-01-29T02:56:42.809Z,9.55
2023-01-29T02:59:12.000Z,9.46
2023-01-29T03:01:45.424Z,9.47
2023-01-29T03:04:14.341Z,9.47
2023-01-29T03:06:45.747Z,9.50
2023-01-29T03:09:33.441Z,9.49
2023-01-29T03:12:03.383Z,9.50
2023-01-29T03:14:57.687Z,9.47
2023-01-29T03:17:25.775Z,9.41
2023-01-29T03:19:52.481Z,9.37
2023-01-29T03:22:22.061Z,9.36
2023-01-29T03:25:10.826Z,9.35
2023-01-29T03:28:00.467Z,9.35
2023-01-29T03:30:45.785Z,9.33
2023-01-29T03:33:12.407Z,9.33
2023-01-29T03:35:40.936Z,9.28
2023-01-29T03:38:10.206Z,9.23
2023-01-29T03:40:39.893Z,9.19
2023-01-29T03:43:11.957Z,9.21
2023-01-29T03:45:58.250Z,9.20
2023-01-29T03:48:25.021Z,9.22
2023-01-29T03:50:54.404Z,9.25
2023-01-29T03:53:39.782Z,9.31
2023-01-29T03:56:10.346Z,9.36
2023-01-29T03:58:37.533Z,9.37
2023-01-29T04:01:19.559Z,9.38
2023-01-29T04:03:46.444Z,9.39
2023-01-29T04:06:29.857Z,9.38
2023-01-29T04:08:59.608Z,9.37
2023-01-29T04:11:26.185Z,9.36
2023-01-29T04:13:52.924Z,9.33
2023-01-29T04:16:27.439Z,9.33
2023-01-29T04:18:54.892Z,9.32
2023-01-29T04:21:21.453Z,9.31
2023-01-29T04:23:48.036Z,9.31
2023-01-29T04:26:36.509Z,9.32
2023-01-29T04:29:22.326Z,9.30
2023-01-29T04:31:52.765Z,9.30
2023-01-29T04:34:25.414Z,9.30
2023-01-29T04:36:58.192Z,9.26
2023-01-29T04:39:25.922Z,9.24
2023-01-29T04:41:55.515Z,9.24
2023-01-29T04:44:34.485Z,9.22
2023-01-29T04:47:05.013Z,9.22
2023-01-29T04:49:36.262Z,9.19
2023-01-29T04:52:21.617Z,9.19
2023-01-29T04:54:51.263Z,9.14
2023-01-29T04:57:17.909Z,9.12
2023-01-29T04:59:48.383Z,9.09
2023-01-29T05:02:15.124Z,9.04
2023-01-29T05:04:41.837Z,9.01
2023-01-29T05:07:09.247Z,8.98
2023-01-29T05:09:35.922Z,8.96
2023-01-29T05:12:02.605Z,8.93
2023-01-29T05:14:30.908Z,8.92
2023-01-29T05:16:57.613Z,8.89
2023-01-29T05:19:24.416Z,8.84
2023-01-29T05:21:51.012Z,8.77
2023-01-29T05:24:21.914Z,8.73
2023-01-29T05:27:07.427Z,8.69
2023-01-29T05:29:34.048Z,8.64
2023-01-29T05:32:00.709Z,8.62
2023-01-29T05:34:27.278Z,8.60
2023-01-29T05:36:53.917Z,8.60
2023-01-29T05:39:20.522Z,8.61
2023-01-29T05:41:47.089Z,8.62
2023-01-29T05:44:13.777Z,8.62
2023-01-29T05:46:40.474Z,8.63
2023-01-29T05:49:07.166Z,8.64
2023-01-29T05:51:33.878Z,8.65
2023-01-29T05:54:00.510Z,8.65
2023-01-29T05:56:27.223Z,8.66
2023-01-29T05:58:54.047Z,8.66
2023-01-29T06:01:21.326Z,8.66
2023-01-29T06:03:47.940Z,8.65
2023-01-29T06:06:15.208Z,8.66
2023-01-29T06:08:41.768Z,8.64
2023-01-29T06:11:08.729Z,8.64
2023-01-29T06:13:35.629Z,8.62
2023-01-29T06:16:04.848Z,8.62
2023-01-29T06:18:31.510Z,8.59
2023-01-29T06:21:00.653Z,8.58
2023-01-29T06:23:27.297Z,8.57
2023-01-29T06:25:53.943Z,8.55
2023-01-29T06:28:20.667Z,8.53
2023-01-29T06:30:47.317Z,8.53
2023-01-29T06:33:13.895Z,8.53
2023-01-29T06:35:40.746Z,8.52
2023-01-29T06:38:07.294Z,8.49
2023-01-29T06:40:33.851Z,8.50
2023-01-29T06:43:00.907Z,8.47
2023-01-29T06:45:27.566Z,8.44
2023-01-29T06:47:54.125Z,8.40
2023-01-29T06:50:20.840Z,8.39
2023-01-29T06:52:47.406Z,8.36
2023-01-29T06:55:14.083Z,8.34
2023-01-29T06:57:40.765Z,8.35
2023-01-29T07:00:07.718Z,8.34
2023-01-29T07:02:36.616Z,8.35
2023-01-29T07:05:03.339Z,8.36
2023-01-29T07:07:29.978Z,8.34
2023-01-29T07:09:56.614Z,8.33
2023-01-29T07:12:23.405Z,8.29
2023-01-29T07:14:50.051Z,8.28
2023-01-29T07:17:16.658Z,8.27
2023-01-29T07:19:43.292Z,8.24
2023-01-29T07:22:09.861Z,8.22
2023-01-29T07:24:36.500Z,8.21
2023-01-29T07:27:03.243Z,8.20
2023-01-29T07:29:29.947Z,8.19
2023-01-29T07:31:56.676Z,8.17
2023-01-29T07:34:23.359Z,8.16
2023-01-29T07:36:50.163Z,8.15
2023-01-29T07:39:16.804Z,8.15
2023-01-29T07:41:43.545Z,8.13
2023-01-29T07:44:10.271Z,8.12
2023-01-29T07:46:36.822Z,8.10
2023-01-29T07:49:03.518Z,8.12
2023-01-29T07:51:30.100Z,8.10
2023-01-29T07:53:56.667Z,8.07
2023-01-29T07:56:23.403Z,8.07
2023-01-29T07:58:49.940Z,8.07
2023-01-29T08:01:16.601Z,8.08
2023-01-29T08:03:43.308Z,8.08
2023-01-29T08:06:09.932Z,8.11
2023-01-29T08:08:36.604Z,8.14
2023-01-29T08:11:03.650Z,8.24
2023-01-29T08:13:30.501Z,8.44
2023-01-29T08:16:03.579Z,8.66
2023-01-29T08:18:31.609Z,8.93
2023-01-29T08:21:01.549Z,9.15
2023-01-29T08:23:28.257Z,9.42
2023-01-29T08:25:55.026Z,9.66
2023-01-29T08:28:21.692Z,9.89
2023-01-29T08:30:48.310Z,10.11
2023-01-29T08:33:16.217Z,10.36
2023-01-29T08:35:42.966Z,10.57
2023-01-29T08:38:09.583Z,10.79
2023-01-29T08:40:36.323Z,11.01
2023-01-29T08:43:04.535Z,11.25
2023-01-29T08:45:33.413Z,11.45
2023-01-29T08:48:00.105Z,11.67
2023-01-29T08:50:26.981Z,11.78
2023-01-29T08:52:57.112Z,11.96
2023-01-29T08:55:23.827Z,12.19
2023-01-29T08:57:50.416Z,12.45
2023-01-29T09:00:17.403Z,12.71
2023-01-29T09:02:44.279Z,13.00
2023-01-29T09:05:10.950Z,13.27
2023-01-29T09:07:37.524Z,13.45
2023-01-29T09:10:04.513Z,13.50
2023-01-29T09:12:31.044Z,13.63
2023-01-29T09:14:57.605Z,13.82
2023-01-29T09:17:24.499Z,13.95
2023-01-29T09:19:53.168Z,14.22
2023-01-29T09:22:21.262Z,14.57
2023-01-29T09:24:47.959Z,14.86
2023-01-29T09:27:14.707Z,15.14
2023-01-29T09:29:41.366Z,15.51
2023-01-29T09:32:08.227Z,15.88
2023-01-29T09:34:35.047Z,16.22
2023-01-29T09:37:01.691Z,16.50
2023-01-29T09:39:28.602Z,16.78
2023-01-29T09:42:07.857Z,16.92
2023-01-29T09:44:40.489Z,17.09
2023-01-29T09:47:08.223Z,17.37
2023-01-29T09:49:37.605Z,17.66
2023-01-29T09:52:27.581Z,17.99
2023-01-29T09:54:58.033Z,18.12
2023-01-29T09:57:35.113Z,18.31
2023-01-29T10:00:01.737Z,18.63
2023-01-29T10:02:40.615Z,18.63
2023-01-29T10:05:17.109Z,18.61
2023-01-29T10:07:43.923Z,18.63
2023-01-29T10:10:13.716Z,18.60
2023-01-29T10:12:43.285Z,18.57
2023-01-29T10:15:28.675Z,18.74
2023-01-29T10:18:13.737Z,18.59
2023-01-29T10:20:40.531Z,18.52
2023-01-29T10:23:07.120Z,18.67
2023-01-29T10:25:34.211Z,18.84
2023-01-29T10:28:01.126Z,19.07
2023-01-29T10:30:27.854Z,19.33
2023-01-29T10:32:54.839Z,19.61
2023-01-29T10:35:23.330Z,19.85
2023-01-29T10:37:52.159Z,20.12
2023-01-29T10:40:20.591Z,20.32
2023-01-29T10:42:57.461Z,20.52
2023-01-29T10:45:24.000Z,20.76
2023-01-29T10:47:56.789Z,20.88
2023-01-29T10:53:05.441Z,21.14
2023-01-29T10:55:32.117Z,21.19
2023-01-29T10:57:58.756Z,21.27
2023-01-29T11:00:25.429Z,21.37
2023-01-29T11:02:52.547Z,21.51
2023-01-29T11:05:39.595Z,21.40
2023-01-29T11:08:11.092Z,21.14
2023-01-29T11:10:39.014Z,21.09
2023-01-29T11:13:05.643Z,21.02
2023-01-29T11:15:34.145Z,21.08
2023-01-29T11:18:03.870Z,21.22
2023-01-29T11:20:30.650Z,21.45
2023-01-29T11:22:58.295Z,21.70
2023-01-29T11:25:25.032Z,21.97
2023-01-29T11:27:58.015Z,22.28
2023-01-29T11:30:24.994Z,22.57
2023-01-29T11:32:52.934Z,22.82
2023-01-29T11:35:20.459Z,23.04
2023-01-29T11:37:47.252Z,23.12
2023-01-29T11:40:20.106Z,23.27
2023-01-29T11:42:47.268Z,23.41
2023-01-29T11:45:23.106Z,23.59
2023-01-29T11:47:50.262Z,23.71
2023-01-29T11:50:20.708Z,23.74
2023-01-29T11:52:47.278Z,23.85
2023-01-29T11:55:15.651Z,23.71
2023-01-29T11:57:42.678Z,23.61
2023-01-29T12:00:18.294Z,23.47
2023-01-29T12:02:49.010Z,23.47
2023-01-29T12:05:23.170Z,23.45
2023-01-29T12:07:50.458Z,23.46
2023-01-29T12:10:34.162Z,23.55
2023-01-29T12:13:10.046Z,23.84
2023-01-29T12:15:37.132Z,23.87
2023-01-29T12:18:03.918Z,23.83
2023-01-29T12:20:41.452Z,23.62
2023-01-29T12:23:14.289Z,23.81
2023-01-29T12:25:44.098Z,24.18
2023-01-29T12:28:23.138Z,24.14
2023-01-29T12:31:01.292Z,24.35
2023-01-29T12:33:57.249Z,24.76
2023-01-29T12:36:35.402Z,25.02
2023-01-29T12:39:02.215Z,25.28
2023-01-29T12:41:30.673Z,25.58
2023-01-29T12:44:03.079Z,25.87
2023-01-29T12:46:31.477Z,26.13
2023-01-29T12:48:59.119Z,26.37
2023-01-29T12:51:26.774Z,26.49
2023-01-29T12:53:57.673Z,26.54
2023-01-29T12:56:32.222Z,26.69
2023-01-29T12:58:59.463Z,26.59
2023-01-29T13:01:33.925Z,26.38
2023-01-29T13:04:06.702Z,26.36
2023-01-29T13:06:37.052Z,25.93
2023-01-29T13:09:04.910Z,25.86
2023-01-29T13:11:36.783Z,25.84
2023-01-29T13:14:23.776Z,25.42
2023-01-29T13:16:54.256Z,25.21
2023-01-29T13:19:22.389Z,25.17
2023-01-29T13:21:49.016Z,25.03
2023-01-29T13:24:16.618Z,24.66
2023-01-29T13:26:46.604Z,24.61
2023-01-29T13:29:31.813Z,24.68
2023-01-29T13:32:02.455Z,24.94
2023-01-29T13:34:29.491Z,25.36
2023-01-29T13:36:56.563Z,25.24
2023-01-29T13:39:23.116Z,24.19
2023-01-29T13:41:49.820Z,23.18
2023-01-29T13:44:22.470Z,22.23
2023-01-29T13:46:50.188Z,21.35
2023-01-29T13:49:24.993Z,20.64
2023-01-29T13:51:51.760Z,19.97
2023-01-29T13:54:18.696Z,19.38
2023-01-29T13:56:49.009Z,18.90
2023-01-29T13:59:23.226Z,18.41
2023-01-29T14:01:49.870Z,17.90
2023-01-29T14:04:19.697Z,17.40
2023-01-29T14:06:50.474Z,16.93
2023-01-29T14:09:52.657Z,16.53
2023-01-29T14:12:22.145Z,16.21
2023-01-29T14:14:48.925Z,16.00
2023-01-29T14:17:16.017Z,15.80
2023-01-29T14:19:52.449Z,15.65
2023-01-29T14:22:20.011Z,15.47
2023-01-29T14:24:46.568Z,15.36
2023-01-29T14:27:17.633Z,15.26
2023-01-29T14:29:44.325Z,15.16
2023-01-29T14:32:13.923Z,15.06
2023-01-29T14:35:04.039Z,14.95
2023-01-29T14:37:33.819Z,14.84
2023-01-29T14:40:12.423Z,14.71
2023-01-29T14:42:39.779Z,14.62
2023-01-29T14:45:25.623Z,14.56
2023-01-29T14:47:53.419Z,14.44
2023-01-29T14:50:29.342Z,14.39
2023-01-29T14:52:59.672Z,14.38
2023-01-29T14:55:26.537Z,14.35
2023-01-29T14:57:53.140Z,14.34
2023-01-29T15:00:24.522Z,14.33
2023-01-29T15:02:59.876Z,14.29
2023-01-29T15:05:29.570Z,14.29
2023-01-29T15:08:19.488Z,14.29
2023-01-29T15:10:47.261Z,14.27
2023-01-29T15:13:25.913Z,14.27
2023-01-29T15:15:56.780Z,14.28
2023-01-29T15:18:49.865Z,14.27
2023-01-29T15:21:18.078Z,14.20
2023-01-29T15:23:44.833Z,14.18
2023-01-29T15:26:12.323Z,14.17
2023-01-29T15:28:39.130Z,14.12
2023-01-29T15:31:07.996Z,14.06
2023-01-29T15:33:34.965Z,14.02
2023-01-29T15:36:09.039Z,13.98
2023-01-29T15:38:35.637Z,13.93
2023-01-29T15:41:03.222Z,13.92
2023-01-29T15:43:30.485Z,13.90
2023-01-29T15:45:58.245Z,13.88
2023-01-29T15:48:32.806Z,13.89
2023-01-29T15:50:59.525Z,13.88
2023-01-29T15:53:29.183Z,13.87
2023-01-29T15:55:56.934Z,13.86
2023-01-29T15:58:24.554Z,13.85
2023-01-29T16:00:52.091Z,13.82
2023-01-29T16:03:25.387Z,13.79
2023-01-29T16:05:52.288Z,13.78
2023-01-29T16:08:18.927Z,13.75
2023-01-29T16:10:46.077Z,13.73
2023-01-29T16:13:16.886Z,13.72
2023-01-29T16:15:54.217Z,13.73
2023-01-29T16:18:30.500Z,13.73
2023-01-29T16:20:57.833Z,13.72
2023-01-29T16:23:31.089Z,13.72
2023-01-29T16:26:02.193Z,13.73
2023-01-29T16:28:28.768Z,13.73
2023-01-29T16:30:56.854Z,13.72
2023-01-29T16:33:25.803Z,13.70
2023-01-29T16:35:52.546Z,13.69
2023-01-29T16:38:27.313Z,13.67
2023-01-29T16:41:07.411Z,13.65
2023-01-29T16:43:43.435Z,13.64
2023-01-29T16:46:39.620Z,13.62
2023-01-29T16:49:25.188Z,13.57
2023-01-29T16:51:51.960Z,13.56
2023-01-29T16:54:19.746Z,13.55
2023-01-29T16:56:46.458Z,13.52
2023-01-29T16:59:20.535Z,13.51
2023-01-29T17:01:47.295Z,13.50
2023-01-29T17:04:14.298Z,13.51
2023-01-29T17:06:41.764Z,13.50
2023-01-29T17:09:08.481Z,13.48
2023-01-29T17:11:37.035Z,13.47
2023-01-29T17:14:04.306Z,13.45
2023-01-29T17:16:32.248Z,13.44
2023-01-29T17:18:59.325Z,13.41
2023-01-29T17:21:26.121Z,13.40
2023-01-29T17:23:52.872Z,13.38
2023-01-29T17:26:19.846Z,13.36
2023-01-29T17:28:46.443Z,13.33
2023-01-29T17:31:13.302Z,13.31
2023-01-29T17:33:41.252Z,13.28
2023-01-29T17:36:11.666Z,13.25
2023-01-29T17:38:39.362Z,13.21
2023-01-29T17:41:24.666Z,13.17
2023-01-29T17:43:51.484Z,13.14
2023-01-29T17:46:18.140Z,13.11
2023-01-29T17:48:45.125Z,13.09
2023-01-29T17:51:12.973Z,13.05
2023-01-29T17:53:47.605Z,13.00
2023-01-29T17:56:15.139Z,12.95
2023-01-29T17:58:42.164Z,12.92
2023-01-29T18:01:08.713Z,12.88
2023-01-29T18:03:35.664Z,12.88
2023-01-29T18:06:02.354Z,12.87
2023-01-29T18:08:30.558Z,12.84
2023-01-29T18:10:57.363Z,12.79
2023-01-29T18:13:24.201Z,12.75
2023-01-29T18:15:51.008Z,12.72
2023-01-29T18:18:21.510Z,12.69
2023-01-29T18:20:49.223Z,12.66
2023-01-29T18:23:15.860Z,12.63
2023-01-29T18:25:43.587Z,12.62
2023-01-29T18:28:11.833Z,12.59
2023-01-29T18:30:38.466Z,12.57
2023-01-29T18:33:05.451Z,12.55
2023-01-29T18:35:32.058Z,12.53
2023-01-29T18:37:58.728Z,12.51
2023-01-29T18:40:26.106Z,12.47
2023-01-29T18:42:52.869Z,12.44
2023-01-29T18:45:19.828Z,12.41
2023-01-29T18:47:48.573Z,12.38
2023-01-29T18:50:16.471Z,12.35
2023-01-29T18:52:44.021Z,12.31
2023-01-29T18:55:10.668Z,12.26
2023-01-29T18:58:27.798Z,12.20
2023-01-29T19:00:25.977Z,12.14
2023-01-29T19:02:52.610Z,12.09
2023-01-29T19:05:21.520Z,12.05
2023-01-29T19:07:48.220Z,12.00
2023-01-29T19:10:17.022Z,11.96
2023-01-29T19:12:43.746Z,11.92
2023-01-29T19:15:10.737Z,11.87
2023-01-29T19:17:37.812Z,11.83
2023-01-29T19:20:05.002Z,11.77
2023-01-29T19:22:32.092Z,11.75
2023-01-29T19:24:58.753Z,11.70
2023-01-29T19:27:26.207Z,11.64
2023-01-29T19:29:53.157Z,11.59
2023-01-29T19:32:19.791Z,11.54
2023-01-29T19:34:46.348Z,11.48
2023-01-29T19:37:12.999Z,11.44
2023-01-29T19:39:39.558Z,11.42
2023-01-29T19:42:06.137Z,11.39
2023-01-29T19:44:32.913Z,11.38
2023-01-29T19:46:59.551Z,11.37
2023-01-29T19:49:27.622Z,11.37
2023-01-29T19:51:56.250Z,11.35
2023-01-29T19:54:22.908Z,11.33
2023-01-29T19:56:49.561Z,11.32
2023-01-29T19:59:16.290Z,11.30
2023-01-29T20:01:43.004Z,11.28
2023-01-29T20:04:09.707Z,11.26
2023-01-29T20:06:36.585Z,11.25
2023-01-29T20:09:03.227Z,11.22
2023-01-29T20:11:30.846Z,11.21
2023-01-29T20:13:57.492Z,11.18
2023-01-29T20:16:24.337Z,11.16
2023-01-29T20:18:50.941Z,11.14
2023-01-29T20:21:18.239Z,11.13
2023-01-29T20:23:45.934Z,11.11
2023-01-29T20:26:13.709Z,11.10
2023-01-29T20:28:40.412Z,11.09
2023-01-29T20:31:07.493Z,11.08
2023-01-29T20:33:34.932Z,11.06
2023-01-29T20:36:02.547Z,11.03
2023-01-29T20:38:31.731Z,11.00
2023-01-29T20:41:08.272Z,10.98
2023-01-29T20:43:34.996Z,10.93
2023-01-29T20:46:01.730Z,10.91
2023-01-29T20:48:28.468Z,10.87
2023-01-29T20:50:55.080Z,10.82
2023-01-29T20:53:22.025Z,10.78
2023-01-29T20:55:48.905Z,10.75
2023-01-29T20:58:16.050Z,10.71
2023-01-29T21:00:42.669Z,10.67
2023-01-29T21:03:09.392Z,10.64
2023-01-29T21:05:36.098Z,10.61
2023-01-29T21:08:02.916Z,10.57
2023-01-29T21:10:29.581Z,10.55
2023-01-29T21:12:56.133Z,10.54
2023-01-29T21:15:23.713Z,10.55
2023-01-29T21:17:50.480Z,10.58
2023-01-29T21:20:17.474Z,10.63
2023-01-29T21:22:44.366Z,10.67
2023-01-29T21:25:11.418Z,10.68
2023-01-29T21:27:38.002Z,10.74
2023-01-29T21:30:04.875Z,10.83
2023-01-29T21:32:31.588Z,10.93
2023-01-29T21:34:58.340Z,11.00
2023-01-29T21:37:24.929Z,11.05
2023-01-29T21:39:51.575Z,11.06
2023-01-29T21:42:36.806Z,11.08
2023-01-29T21:45:03.716Z,11.11
2023-01-29T21:47:30.267Z,11.10
2023-01-29T21:49:57.053Z,11.09
2023-01-29T21:52:23.768Z,11.09
2023-01-29T21:54:50.376Z,11.10
2023-01-29T21:57:17.130Z,11.08
2023-01-29T21:59:43.993Z,11.04
2023-01-29T22:02:17.292Z,10.97
2023-01-29T22:04:44.030Z,10.84
2023-01-29T22:07:11.085Z,10.73
2023-01-29T22:09:38.122Z,10.61
2023-01-29T22:12:06.446Z,10.49
2023-01-29T22:14:33.011Z,10.37
2023-01-29T22:16:59.589Z,10.23
2023-01-29T22:19:26.332Z,10.10
2023-01-29T22:21:53.366Z,9.99
2023-01-29T22:24:20.817Z,9.89
2023-01-29T22:26:48.652Z,9.80
2023-01-29T22:29:19.715Z,9.72
2023-01-29T22:31:46.372Z,9.67
2023-01-29T22:34:13.436Z,9.61
2023-01-29T22:36:39.999Z,9.57
2023-01-29T22:39:07.727Z,9.51
2023-01-29T22:41:34.648Z,9.46
2023-01-29T22:44:01.454Z,9.42
2023-01-29T22:46:28.198Z,9.39
2023-01-29T22:48:54.870Z,9.36
2023-01-29T22:51:21.473Z,9.33
2023-01-29T22:53:51.706Z,9.32
2023-01-29T22:56:18.634Z,9.31
2023-01-29T22:58:45.176Z,9.33
2023-01-29T23:01:11.726Z,9.36
2023-01-29T23:03:38.691Z,9.39
2023-01-29T23:06:05.286Z,9.40
2023-01-29T23:08:34.787Z,9.40
2023-01-29T23:11:14.687Z,9.43
2023-01-29T23:13:45.298Z,9.52
2023-01-29T23:16:12.250Z,9.65
2023-01-29T23:18:38.927Z,9.77
2023-01-29T23:21:05.720Z,9.85
2023-01-29T23:23:33.448Z,9.92
2023-01-29T23:26:18.948Z,9.97
2023-01-29T23:28:45.732Z,10.02
2023-01-29T23:31:12.332Z,10.09
2023-01-29T23:33:39.064Z,10.12
2023-01-29T23:36:06.184Z,10.15
2023-01-29T23:38:32.931Z,10.18
2023-01-29T23:40:59.892Z,10.21
2023-01-29T23:43:29.511Z,10.24
2023-01-29T23:45:56.221Z,10.26
2023-01-29T23:48:23.027Z,10.28
2023-01-29T23:50:49.811Z,10.30
2023-01-29T23:53:16.474Z,10.31
2023-01-29T23:55:43.147Z,10.32
2023-01-29T23:58:09.778Z,10.31
